sensor_id;sensor_type;location;lat;lon;timestamp;temperature;humidity
22491;DHT22;11412;50.802;4.350;2023-03-24T00:01:13;13.40;99.90
22491;DHT22;11412;50.802;4.350;2023-03-24T00:03:39;13.40;99.90
22491;DHT22;11412;50.802;4.350;2023-03-24T00:06:06;13.40;99.90
22491;DHT22;11412;50.802;4.350;2023-03-24T00:08:35;13.30;99.90
22491;DHT22;11412;50.802;4.350;2023-03-24T00:11:05;13.30;99.90
22491;DHT22;11412;50.802;4.350;2023-03-24T00:13:31;13.30;99.90
22491;DHT22;11412;50.802;4.350;2023-03-24T00:16:07;13.30;99.90
22491;DHT22;11412;50.802;4.350;2023-03-24T00:18:34;13.40;99.90
22491;DHT22;11412;50.802;4.350;2023-03-24T00:21:02;13.40;99.90
22491;DHT22;11412;50.802;4.350;2023-03-24T00:23:28;13.40;99.90
22491;DHT22;11412;50.802;4.350;2023-03-24T00:26:09;13.40;99.90
22491;DHT22;11412;50.802;4.350;2023-03-24T00:28:37;13.50;99.90
22491;DHT22;11412;50.802;4.350;2023-03-24T00:31:05;13.50;99.90
22491;DHT22;11412;50.802;4.350;2023-03-24T00:33:31;13.50;99.90
22491;DHT22;11412;50.802;4.350;2023-03-24T00:36:02;13.50;99.90
22491;DHT22;11412;50.802;4.350;2023-03-24T00:38:28;13.60;99.90
22491;DHT22;11412;50.802;4.350;2023-03-24T00:40:54;13.50;99.90
22491;DHT22;11412;50.802;4.350;2023-03-24T00:43:20;13.50;99.90
22491;DHT22;11412;50.802;4.350;2023-03-24T00:45:46;13.50;99.90
22491;DHT22;11412;50.802;4.350;2023-03-24T00:48:16;13.60;99.90
22491;DHT22;11412;50.802;4.350;2023-03-24T00:50:48;13.70;99.90
22491;DHT22;11412;50.802;4.350;2023-03-24T00:53:14;13.80;99.90
22491;DHT22;11412;50.802;4.350;2023-03-24T00:55:45;13.80;99.90
22491;DHT22;11412;50.802;4.350;2023-03-24T00:58:13;13.70;99.90
22491;DHT22;11412;50.802;4.350;2023-03-24T01:00:50;13.70;99.90
22491;DHT22;11412;50.802;4.350;2023-03-24T01:03:17;13.70;99.90
22491;DHT22;11412;50.802;4.350;2023-03-24T01:05:46;13.60;99.90
22491;DHT22;11412;50.802;4.350;2023-03-24T01:08:17;13.60;99.90
22491;DHT22;11412;50.802;4.350;2023-03-24T01:10:47;13.60;99.90
22491;DHT22;11412;50.802;4.350;2023-03-24T01:13:25;13.70;99.90
22491;DHT22;11412;50.802;4.350;2023-03-24T01:15:52;13.70;99.90
22491;DHT22;11412;50.802;4.350;2023-03-24T01:18:18;13.80;99.90
22491;DHT22;11412;50.802;4.350;2023-03-24T01:20:45;13.80;99.90
22491;DHT22;11412;50.802;4.350;2023-03-24T01:23:19;13.80;99.90
22491;DHT22;11412;50.802;4.350;2023-03-24T01:25:45;13.80;99.90
22491;DHT22;11412;50.802;4.350;2023-03-24T01:28:14;13.80;99.90
22491;DHT22;11412;50.802;4.350;2023-03-24T01:30:42;13.90;99.90
22491;DHT22;11412;50.802;4.350;2023-03-24T01:33:08;14.00;99.90
22491;DHT22;11412;50.802;4.350;2023-03-24T01:35:34;14.00;99.90
22491;DHT22;11412;50.802;4.350;2023-03-24T01:38:01;14.00;99.90
22491;DHT22;11412;50.802;4.350;2023-03-24T01:40:31;14.10;99.90
22491;DHT22;11412;50.802;4.350;2023-03-24T01:42:58;14.10;99.90
22491;DHT22;11412;50.802;4.350;2023-03-24T01:53:22;14.10;99.90
22491;DHT22;11412;50.802;4.350;2023-03-24T01:55:49;14.30;99.90
22491;DHT22;11412;50.802;4.350;2023-03-24T01:58:16;14.30;99.90
22491;DHT22;11412;50.802;4.350;2023-03-24T02:00:42;14.40;99.90
22491;DHT22;11412;50.802;4.350;2023-03-24T02:03:12;14.30;99.90
22491;DHT22;11412;50.802;4.350;2023-03-24T02:05:40;14.10;99.90
22491;DHT22;11412;50.802;4.350;2023-03-24T02:08:27;14.10;99.90
22491;DHT22;11412;50.802;4.350;2023-03-24T02:10:55;14.10;99.90
22491;DHT22;11412;50.802;4.350;2023-03-24T02:13:22;14.10;99.90
22491;DHT22;11412;50.802;4.350;2023-03-24T02:19:02;13.90;99.90
22491;DHT22;11412;50.802;4.350;2023-03-24T02:30:35;13.30;99.90
22491;DHT22;11412;50.802;4.350;2023-03-24T02:46:53;12.50;99.90
22491;DHT22;11412;50.802;4.350;2023-03-24T02:49:32;12.40;99.90
22491;DHT22;11412;50.802;4.350;2023-03-24T02:52:22;12.30;99.90
22491;DHT22;11412;50.802;4.350;2023-03-24T02:55:32;12.30;99.90
22491;DHT22;11412;50.802;4.350;2023-03-24T02:58:04;12.30;99.90
22491;DHT22;11412;50.802;4.350;2023-03-24T03:00:35;12.40;99.90
22491;DHT22;11412;50.802;4.350;2023-03-24T03:03:10;12.50;99.90
22491;DHT22;11412;50.802;4.350;2023-03-24T03:05:53;12.50;99.90
22491;DHT22;11412;50.802;4.350;2023-03-24T03:08:26;12.50;99.90
22491;DHT22;11412;50.802;4.350;2023-03-24T03:10:54;12.50;99.90
22491;DHT22;11412;50.802;4.350;2023-03-24T03:13:35;12.30;99.90
22491;DHT22;11412;50.802;4.350;2023-03-24T03:16:15;12.40;99.90
22491;DHT22;11412;50.802;4.350;2023-03-24T03:18:44;12.30;99.90
22491;DHT22;11412;50.802;4.350;2023-03-24T03:21:17;12.30;99.90
22491;DHT22;11412;50.802;4.350;2023-03-24T03:23:50;12.20;99.90
22491;DHT22;11412;50.802;4.350;2023-03-24T03:26:19;12.20;99.90
22491;DHT22;11412;50.802;4.350;2023-03-24T03:28:52;12.10;99.90
22491;DHT22;11412;50.802;4.350;2023-03-24T03:31:33;11.90;99.90
22491;DHT22;11412;50.802;4.350;2023-03-24T03:36:37;11.90;99.90
22491;DHT22;11412;50.802;4.350;2023-03-24T03:39:13;11.80;99.90
22491;DHT22;11412;50.802;4.350;2023-03-24T03:41:41;11.80;99.90
22491;DHT22;11412;50.802;4.350;2023-03-24T03:44:07;11.80;99.90
22491;DHT22;11412;50.802;4.350;2023-03-24T03:46:34;11.70;99.90
22491;DHT22;11412;50.802;4.350;2023-03-24T03:49:02;11.80;99.90
22491;DHT22;11412;50.802;4.350;2023-03-24T03:51:28;12.00;99.90
22491;DHT22;11412;50.802;4.350;2023-03-24T03:53:57;12.00;99.90
22491;DHT22;11412;50.802;4.350;2023-03-24T03:56:26;12.00;99.90
22491;DHT22;11412;50.802;4.350;2023-03-24T03:58:52;11.80;99.90
22491;DHT22;11412;50.802;4.350;2023-03-24T04:01:21;11.90;99.90
22491;DHT22;11412;50.802;4.350;2023-03-24T04:17:30;12.00;99.90
22491;DHT22;11412;50.802;4.350;2023-03-24T04:20:24;11.90;99.90
22491;DHT22;11412;50.802;4.350;2023-03-24T04:23:25;11.90;99.90
22491;DHT22;11412;50.802;4.350;2023-03-24T04:28:47;11.90;99.90
22491;DHT22;11412;50.802;4.350;2023-03-24T04:31:26;11.90;99.90
22491;DHT22;11412;50.802;4.350;2023-03-24T04:33:59;12.00;99.90
22491;DHT22;11412;50.802;4.350;2023-03-24T04:36:40;12.10;99.90
22491;DHT22;11412;50.802;4.350;2023-03-24T04:39:14;11.80;99.90
22491;DHT22;11412;50.802;4.350;2023-03-24T04:41:41;11.90;99.90
22491;DHT22;11412;50.802;4.350;2023-03-24T04:44:09;11.90;99.90
22491;DHT22;11412;50.802;4.350;2023-03-24T04:46:37;11.70;99.90
22491;DHT22;11412;50.802;4.350;2023-03-24T04:49:03;11.60;99.90
22491;DHT22;11412;50.802;4.350;2023-03-24T04:51:30;11.70;99.90
22491;DHT22;11412;50.802;4.350;2023-03-24T04:53:56;11.70;99.90
22491;DHT22;11412;50.802;4.350;2023-03-24T04:58:54;11.60;99.90
22491;DHT22;11412;50.802;4.350;2023-03-24T05:01:21;11.60;99.90
22491;DHT22;11412;50.802;4.350;2023-03-24T05:03:47;11.70;99.90
22491;DHT22;11412;50.802;4.350;2023-03-24T05:06:13;11.60;99.90
22491;DHT22;11412;50.802;4.350;2023-03-24T05:08:39;11.50;99.90
22491;DHT22;11412;50.802;4.350;2023-03-24T05:11:06;11.60;99.90
22491;DHT22;11412;50.802;4.350;2023-03-24T05:13:31;11.60;99.90
22491;DHT22;11412;50.802;4.350;2023-03-24T05:15:57;11.70;99.90
22491;DHT22;11412;50.802;4.350;2023-03-24T05:18:23;11.60;99.90
22491;DHT22;11412;50.802;4.350;2023-03-24T05:20:49;11.50;99.90
22491;DHT22;11412;50.802;4.350;2023-03-24T05:23:14;11.60;99.90
22491;DHT22;11412;50.802;4.350;2023-03-24T05:25:40;11.40;99.90
22491;DHT22;11412;50.802;4.350;2023-03-24T05:28:06;11.60;99.90
22491;DHT22;11412;50.802;4.350;2023-03-24T05:30:31;11.60;99.90
22491;DHT22;11412;50.802;4.350;2023-03-24T05:32:57;11.50;99.90
22491;DHT22;11412;50.802;4.350;2023-03-24T05:35:23;11.70;99.90
22491;DHT22;11412;50.802;4.350;2023-03-24T05:37:49;11.70;99.90
22491;DHT22;11412;50.802;4.350;2023-03-24T05:40:15;11.80;99.90
22491;DHT22;11412;50.802;4.350;2023-03-24T05:42:41;11.70;99.90
22491;DHT22;11412;50.802;4.350;2023-03-24T05:45:09;11.80;99.90
22491;DHT22;11412;50.802;4.350;2023-03-24T05:47:35;11.50;99.90
22491;DHT22;11412;50.802;4.350;2023-03-24T05:50:00;11.40;99.90
22491;DHT22;11412;50.802;4.350;2023-03-24T05:52:26;11.60;99.90
22491;DHT22;11412;50.802;4.350;2023-03-24T05:54:52;11.60;99.90
22491;DHT22;11412;50.802;4.350;2023-03-24T05:57:18;11.60;99.90
22491;DHT22;11412;50.802;4.350;2023-03-24T05:59:45;11.50;99.90
22491;DHT22;11412;50.802;4.350;2023-03-24T06:02:11;11.40;99.90
22491;DHT22;11412;50.802;4.350;2023-03-24T06:04:36;11.30;99.90
22491;DHT22;11412;50.802;4.350;2023-03-24T06:07:02;11.30;99.90
22491;DHT22;11412;50.802;4.350;2023-03-24T06:09:29;11.40;99.90
22491;DHT22;11412;50.802;4.350;2023-03-24T06:12:01;11.50;99.90
22491;DHT22;11412;50.802;4.350;2023-03-24T06:14:27;11.50;99.90
22491;DHT22;11412;50.802;4.350;2023-03-24T06:16:53;11.60;99.90
22491;DHT22;11412;50.802;4.350;2023-03-24T06:19:24;11.70;99.90
22491;DHT22;11412;50.802;4.350;2023-03-24T06:21:52;11.60;99.90
22491;DHT22;11412;50.802;4.350;2023-03-24T06:24:18;11.50;99.90
22491;DHT22;11412;50.802;4.350;2023-03-24T06:26:44;11.60;99.90
22491;DHT22;11412;50.802;4.350;2023-03-24T06:29:11;11.60;99.90
22491;DHT22;11412;50.802;4.350;2023-03-24T06:31:37;11.50;99.90
22491;DHT22;11412;50.802;4.350;2023-03-24T06:34:04;11.70;99.90
22491;DHT22;11412;50.802;4.350;2023-03-24T06:36:30;11.80;99.90
22491;DHT22;11412;50.802;4.350;2023-03-24T06:38:59;11.80;99.90
22491;DHT22;11412;50.802;4.350;2023-03-24T06:41:27;11.90;99.90
22491;DHT22;11412;50.802;4.350;2023-03-24T06:43:52;11.90;99.90
22491;DHT22;11412;50.802;4.350;2023-03-24T06:46:18;11.40;99.90
22491;DHT22;11412;50.802;4.350;2023-03-24T06:48:44;11.70;99.90
22491;DHT22;11412;50.802;4.350;2023-03-24T06:51:10;11.80;99.90
22491;DHT22;11412;50.802;4.350;2023-03-24T06:53:36;11.80;99.90
22491;DHT22;11412;50.802;4.350;2023-03-24T06:56:03;11.80;99.90
22491;DHT22;11412;50.802;4.350;2023-03-24T06:58:29;11.80;99.90
22491;DHT22;11412;50.802;4.350;2023-03-24T07:00:54;11.90;99.90
22491;DHT22;11412;50.802;4.350;2023-03-24T07:03:20;11.90;99.90
22491;DHT22;11412;50.802;4.350;2023-03-24T07:05:47;11.80;99.90
22491;DHT22;11412;50.802;4.350;2023-03-24T07:08:13;11.90;99.90
22491;DHT22;11412;50.802;4.350;2023-03-24T07:10:39;11.90;99.90
22491;DHT22;11412;50.802;4.350;2023-03-24T07:13:06;11.70;99.90
22491;DHT22;11412;50.802;4.350;2023-03-24T07:15:32;11.90;99.90
22491;DHT22;11412;50.802;4.350;2023-03-24T07:17:58;12.00;99.90
22491;DHT22;11412;50.802;4.350;2023-03-24T07:20:25;12.00;99.90
22491;DHT22;11412;50.802;4.350;2023-03-24T07:22:54;11.80;99.90
22491;DHT22;11412;50.802;4.350;2023-03-24T07:25:20;12.00;99.90
22491;DHT22;11412;50.802;4.350;2023-03-24T07:27:45;12.00;99.90
22491;DHT22;11412;50.802;4.350;2023-03-24T07:30:12;11.90;99.90
22491;DHT22;11412;50.802;4.350;2023-03-24T07:32:38;11.80;99.90
22491;DHT22;11412;50.802;4.350;2023-03-24T07:35:06;12.00;99.90
22491;DHT22;11412;50.802;4.350;2023-03-24T07:37:32;12.30;99.90
22491;DHT22;11412;50.802;4.350;2023-03-24T07:39:57;12.40;99.90
22491;DHT22;11412;50.802;4.350;2023-03-24T07:42:23;12.40;99.90
22491;DHT22;11412;50.802;4.350;2023-03-24T07:44:50;12.30;99.90
22491;DHT22;11412;50.802;4.350;2023-03-24T07:47:15;12.20;99.90
22491;DHT22;11412;50.802;4.350;2023-03-24T07:49:42;12.20;99.90
22491;DHT22;11412;50.802;4.350;2023-03-24T07:52:07;12.10;99.90
22491;DHT22;11412;50.802;4.350;2023-03-24T07:54:33;12.10;99.90
22491;DHT22;11412;50.802;4.350;2023-03-24T07:56:59;12.10;99.90
22491;DHT22;11412;50.802;4.350;2023-03-24T07:59:25;12.40;99.90
22491;DHT22;11412;50.802;4.350;2023-03-24T08:01:52;12.40;99.90
22491;DHT22;11412;50.802;4.350;2023-03-24T08:04:18;12.60;99.90
22491;DHT22;11412;50.802;4.350;2023-03-24T08:06:43;12.70;99.90
22491;DHT22;11412;50.802;4.350;2023-03-24T08:09:10;12.80;99.90
22491;DHT22;11412;50.802;4.350;2023-03-24T08:11:36;12.60;99.90
22491;DHT22;11412;50.802;4.350;2023-03-24T08:14:01;12.80;99.90
22491;DHT22;11412;50.802;4.350;2023-03-24T08:16:27;13.10;99.90
22491;DHT22;11412;50.802;4.350;2023-03-24T08:18:53;13.20;99.90
22491;DHT22;11412;50.802;4.350;2023-03-24T08:21:23;13.30;99.90
22491;DHT22;11412;50.802;4.350;2023-03-24T08:23:48;13.40;99.90
22491;DHT22;11412;50.802;4.350;2023-03-24T08:26:14;13.70;99.90
22491;DHT22;11412;50.802;4.350;2023-03-24T08:28:40;13.90;99.90
22491;DHT22;11412;50.802;4.350;2023-03-24T08:31:06;14.00;99.90
22491;DHT22;11412;50.802;4.350;2023-03-24T08:33:33;13.90;99.90
22491;DHT22;11412;50.802;4.350;2023-03-24T08:35:59;13.70;99.90
22491;DHT22;11412;50.802;4.350;2023-03-24T08:38:26;13.40;99.90
22491;DHT22;11412;50.802;4.350;2023-03-24T08:41:00;13.60;99.90
22491;DHT22;11412;50.802;4.350;2023-03-24T08:43:28;13.70;99.90
22491;DHT22;11412;50.802;4.350;2023-03-24T08:45:56;14.50;99.90
22491;DHT22;11412;50.802;4.350;2023-03-24T08:48:21;15.30;99.90
22491;DHT22;11412;50.802;4.350;2023-03-24T08:50:48;16.20;99.90
22491;DHT22;11412;50.802;4.350;2023-03-24T08:53:13;16.10;99.90
22491;DHT22;11412;50.802;4.350;2023-03-24T08:55:40;15.70;99.90
22491;DHT22;11412;50.802;4.350;2023-03-24T08:58:14;15.90;99.90
22491;DHT22;11412;50.802;4.350;2023-03-24T09:00:40;15.70;99.90
22491;DHT22;11412;50.802;4.350;2023-03-24T09:03:11;15.70;99.90
22491;DHT22;11412;50.802;4.350;2023-03-24T09:05:38;15.70;99.90
22491;DHT22;11412;50.802;4.350;2023-03-24T09:08:03;15.60;99.90
22491;DHT22;11412;50.802;4.350;2023-03-24T09:10:29;14.80;99.90
22491;DHT22;11412;50.802;4.350;2023-03-24T09:12:55;14.70;99.90
22491;DHT22;11412;50.802;4.350;2023-03-24T09:15:20;14.40;99.90
22491;DHT22;11412;50.802;4.350;2023-03-24T09:17:46;14.40;99.90
22491;DHT22;11412;50.802;4.350;2023-03-24T09:20:14;14.40;99.90
22491;DHT22;11412;50.802;4.350;2023-03-24T09:22:42;14.50;99.90
22491;DHT22;11412;50.802;4.350;2023-03-24T09:25:10;14.50;99.90
22491;DHT22;11412;50.802;4.350;2023-03-24T09:27:36;14.50;99.90
22491;DHT22;11412;50.802;4.350;2023-03-24T09:30:03;14.40;99.90
22491;DHT22;11412;50.802;4.350;2023-03-24T09:32:28;14.90;99.90
22491;DHT22;11412;50.802;4.350;2023-03-24T09:34:54;15.60;99.90
22491;DHT22;11412;50.802;4.350;2023-03-24T09:37:20;16.50;99.90
22491;DHT22;11412;50.802;4.350;2023-03-24T09:39:46;17.00;99.90
22491;DHT22;11412;50.802;4.350;2023-03-24T09:42:22;16.60;99.90
22491;DHT22;11412;50.802;4.350;2023-03-24T09:44:52;15.90;99.90
22491;DHT22;11412;50.802;4.350;2023-03-24T09:47:36;15.60;99.90
22491;DHT22;11412;50.802;4.350;2023-03-24T09:50:11;15.30;99.90
22491;DHT22;11412;50.802;4.350;2023-03-24T09:52:43;14.90;99.90
22491;DHT22;11412;50.802;4.350;2023-03-24T09:55:18;15.10;99.90
22491;DHT22;11412;50.802;4.350;2023-03-24T09:57:47;15.70;99.90
22491;DHT22;11412;50.802;4.350;2023-03-24T10:02:48;16.00;99.90
22491;DHT22;11412;50.802;4.350;2023-03-24T10:05:25;16.50;99.90
22491;DHT22;11412;50.802;4.350;2023-03-24T10:11:23;16.10;99.90
22491;DHT22;11412;50.802;4.350;2023-03-24T10:13:50;16.00;99.90
22491;DHT22;11412;50.802;4.350;2023-03-24T10:21:45;16.20;99.90
22491;DHT22;11412;50.802;4.350;2023-03-24T10:24:35;16.60;99.90
22491;DHT22;11412;50.802;4.350;2023-03-24T10:27:05;16.90;99.90
22491;DHT22;11412;50.802;4.350;2023-03-24T10:29:35;17.30;99.90
22491;DHT22;11412;50.802;4.350;2023-03-24T10:32:15;17.40;99.90
22491;DHT22;11412;50.802;4.350;2023-03-24T10:34:48;17.50;99.90
22491;DHT22;11412;50.802;4.350;2023-03-24T10:37:15;17.60;99.90
22491;DHT22;11412;50.802;4.350;2023-03-24T10:39:42;17.70;99.90
22491;DHT22;11412;50.802;4.350;2023-03-24T10:42:20;17.50;99.90
22491;DHT22;11412;50.802;4.350;2023-03-24T10:44:50;17.30;99.90
22491;DHT22;11412;50.802;4.350;2023-03-24T10:47:20;16.90;99.90
22491;DHT22;11412;50.802;4.350;2023-03-24T10:49:58;16.60;99.90
22491;DHT22;11412;50.802;4.350;2023-03-24T10:52:25;16.50;99.90
22491;DHT22;11412;50.802;4.350;2023-03-24T10:54:57;16.60;99.90
22491;DHT22;11412;50.802;4.350;2023-03-24T10:57:24;16.60;99.90
22491;DHT22;11412;50.802;4.350;2023-03-24T11:00:05;16.50;99.90
22491;DHT22;11412;50.802;4.350;2023-03-24T11:02:41;16.80;99.90
22491;DHT22;11412;50.802;4.350;2023-03-24T11:05:19;16.40;99.90
22491;DHT22;11412;50.802;4.350;2023-03-24T11:07:49;16.40;99.90
22491;DHT22;11412;50.802;4.350;2023-03-24T11:10:24;16.20;99.90
22491;DHT22;11412;50.802;4.350;2023-03-24T11:15:20;15.90;99.90
22491;DHT22;11412;50.802;4.350;2023-03-24T11:17:52;15.80;99.90
22491;DHT22;11412;50.802;4.350;2023-03-24T11:20:33;15.70;99.90
22491;DHT22;11412;50.802;4.350;2023-03-24T11:23:20;15.60;99.90
22491;DHT22;11412;50.802;4.350;2023-03-24T11:28:44;16.10;99.90
22491;DHT22;11412;50.802;4.350;2023-03-24T11:31:11;16.40;99.90
22491;DHT22;11412;50.802;4.350;2023-03-24T11:36:43;16.80;99.90
22491;DHT22;11412;50.802;4.350;2023-03-24T11:39:14;17.10;99.90
22491;DHT22;11412;50.802;4.350;2023-03-24T11:41:50;17.30;99.90
22491;DHT22;11412;50.802;4.350;2023-03-24T11:44:17;17.60;99.90
22491;DHT22;11412;50.802;4.350;2023-03-24T11:46:45;17.80;99.90
22491;DHT22;11412;50.802;4.350;2023-03-24T11:49:15;18.00;99.90
22491;DHT22;11412;50.802;4.350;2023-03-24T11:51:42;18.30;99.90
22491;DHT22;11412;50.802;4.350;2023-03-24T11:54:12;18.60;99.90
22491;DHT22;11412;50.802;4.350;2023-03-24T11:56:52;18.10;99.90
22491;DHT22;11412;50.802;4.350;2023-03-24T11:59:36;17.60;99.90
22491;DHT22;11412;50.802;4.350;2023-03-24T12:04:46;17.30;99.90
22491;DHT22;11412;50.802;4.350;2023-03-24T12:10:39;16.40;99.90
22491;DHT22;11412;50.802;4.350;2023-03-24T12:16:09;16.00;99.90
22491;DHT22;11412;50.802;4.350;2023-03-24T12:18:46;16.00;99.90
22491;DHT22;11412;50.802;4.350;2023-03-24T12:26:32;16.30;99.90
22491;DHT22;11412;50.802;4.350;2023-03-24T12:34:49;17.00;99.90
22491;DHT22;11412;50.802;4.350;2023-03-24T12:45:56;17.30;99.90
22491;DHT22;11412;50.802;4.350;2023-03-24T12:53:57;17.70;99.90
22491;DHT22;11412;50.802;4.350;2023-03-24T12:56:32;17.20;99.90
22491;DHT22;11412;50.802;4.350;2023-03-24T12:59:09;16.50;99.90
22491;DHT22;11412;50.802;4.350;2023-03-24T13:01:38;16.20;99.90
22491;DHT22;11412;50.802;4.350;2023-03-24T13:06:48;15.70;99.90
22491;DHT22;11412;50.802;4.350;2023-03-24T13:11:57;14.90;99.90
22491;DHT22;11412;50.802;4.350;2023-03-24T13:20:30;13.90;99.90
22491;DHT22;11412;50.802;4.350;2023-03-24T13:23:00;13.90;99.90
22491;DHT22;11412;50.802;4.350;2023-03-24T13:25:42;13.70;99.90
22491;DHT22;11412;50.802;4.350;2023-03-24T13:28:20;13.30;99.90
22491;DHT22;11412;50.802;4.350;2023-03-24T13:30:47;13.30;99.90
22491;DHT22;11412;50.802;4.350;2023-03-24T13:33:21;13.50;99.90
22491;DHT22;11412;50.802;4.350;2023-03-24T13:38:37;14.70;99.90
22491;DHT22;11412;50.802;4.350;2023-03-24T13:41:17;14.80;99.90
22491;DHT22;11412;50.802;4.350;2023-03-24T13:43:57;15.20;99.90
22491;DHT22;11412;50.802;4.350;2023-03-24T13:46:24;15.50;99.90
22491;DHT22;11412;50.802;4.350;2023-03-24T13:48:53;15.30;99.90
22491;DHT22;11412;50.802;4.350;2023-03-24T13:51:32;15.10;99.90
22491;DHT22;11412;50.802;4.350;2023-03-24T13:59:31;15.50;99.90
22491;DHT22;11412;50.802;4.350;2023-03-24T14:02:39;16.00;99.90
22491;DHT22;11412;50.802;4.350;2023-03-24T14:15:20;15.70;99.90
22491;DHT22;11412;50.802;4.350;2023-03-24T14:17:48;15.40;99.90
22491;DHT22;11412;50.802;4.350;2023-03-24T14:20:38;15.40;99.90
22491;DHT22;11412;50.802;4.350;2023-03-24T14:23:20;15.20;99.90
22491;DHT22;11412;50.802;4.350;2023-03-24T14:25:53;15.40;99.90
22491;DHT22;11412;50.802;4.350;2023-03-24T14:28:24;15.20;99.90
22491;DHT22;11412;50.802;4.350;2023-03-24T14:33:28;14.80;99.90
22491;DHT22;11412;50.802;4.350;2023-03-24T14:36:02;14.90;99.90
22491;DHT22;11412;50.802;4.350;2023-03-24T14:38:44;14.90;99.90
22491;DHT22;11412;50.802;4.350;2023-03-24T14:41:15;15.20;99.90
22491;DHT22;11412;50.802;4.350;2023-03-24T14:51:36;15.80;99.90
22491;DHT22;11412;50.802;4.350;2023-03-24T14:54:16;15.90;99.90
22491;DHT22;11412;50.802;4.350;2023-03-24T14:56:46;16.20;99.90
22491;DHT22;11412;50.802;4.350;2023-03-24T15:07:37;17.10;99.90
22491;DHT22;11412;50.802;4.350;2023-03-24T15:10:03;17.20;99.90
22491;DHT22;11412;50.802;4.350;2023-03-24T15:12:28;17.00;99.90
22491;DHT22;11412;50.802;4.350;2023-03-24T15:14:54;17.00;99.90
22491;DHT22;11412;50.802;4.350;2023-03-24T15:17:23;17.00;99.90
22491;DHT22;11412;50.802;4.350;2023-03-24T15:19:50;17.00;99.90
22491;DHT22;11412;50.802;4.350;2023-03-24T15:22:17;17.00;99.90
22491;DHT22;11412;50.802;4.350;2023-03-24T15:24:47;16.90;99.90
22491;DHT22;11412;50.802;4.350;2023-03-24T15:27:24;16.80;99.90
22491;DHT22;11412;50.802;4.350;2023-03-24T15:29:57;16.80;99.90
22491;DHT22;11412;50.802;4.350;2023-03-24T15:32:24;16.80;99.90
22491;DHT22;11412;50.802;4.350;2023-03-24T15:34:57;16.60;99.90
22491;DHT22;11412;50.802;4.350;2023-03-24T15:37:38;16.40;99.90
22491;DHT22;11412;50.802;4.350;2023-03-24T15:43:01;16.30;99.90
22491;DHT22;11412;50.802;4.350;2023-03-24T15:45:43;16.20;99.90
22491;DHT22;11412;50.802;4.350;2023-03-24T15:48:14;15.80;99.90
22491;DHT22;11412;50.802;4.350;2023-03-24T15:50:54;15.90;99.90
22491;DHT22;11412;50.802;4.350;2023-03-24T16:01:28;15.20;99.90
22491;DHT22;11412;50.802;4.350;2023-03-24T16:04:05;15.10;99.90
22491;DHT22;11412;50.802;4.350;2023-03-24T16:06:34;14.60;99.90
22491;DHT22;11412;50.802;4.350;2023-03-24T16:09:05;14.70;99.90
22491;DHT22;11412;50.802;4.350;2023-03-24T16:11:31;14.80;99.90
22491;DHT22;11412;50.802;4.350;2023-03-24T16:13:57;14.30;99.90
22491;DHT22;11412;50.802;4.350;2023-03-24T16:16:28;14.60;99.90
22491;DHT22;11412;50.802;4.350;2023-03-24T16:18:54;14.50;99.90
22491;DHT22;11412;50.802;4.350;2023-03-24T16:21:23;14.50;99.90
22491;DHT22;11412;50.802;4.350;2023-03-24T16:23:52;14.80;99.90
22491;DHT22;11412;50.802;4.350;2023-03-24T16:26:26;14.80;99.90
22491;DHT22;11412;50.802;4.350;2023-03-24T16:28:53;14.70;99.90
22491;DHT22;11412;50.802;4.350;2023-03-24T16:31:26;14.80;99.90
22491;DHT22;11412;50.802;4.350;2023-03-24T16:33:55;15.00;99.90
22491;DHT22;11412;50.802;4.350;2023-03-24T16:36:20;14.90;99.90
22491;DHT22;11412;50.802;4.350;2023-03-24T16:38:48;15.00;99.90
22491;DHT22;11412;50.802;4.350;2023-03-24T16:41:14;14.90;99.90
22491;DHT22;11412;50.802;4.350;2023-03-24T16:43:41;14.80;99.90
22491;DHT22;11412;50.802;4.350;2023-03-24T16:48:51;14.70;99.90
22491;DHT22;11412;50.802;4.350;2023-03-24T16:51:17;14.40;99.90
22491;DHT22;11412;50.802;4.350;2023-03-24T16:53:44;14.20;99.90
22491;DHT22;11412;50.802;4.350;2023-03-24T16:56:16;14.10;99.90
22491;DHT22;11412;50.802;4.350;2023-03-24T16:58:43;14.00;99.90
22491;DHT22;11412;50.802;4.350;2023-03-24T17:01:19;13.70;99.90
22491;DHT22;11412;50.802;4.350;2023-03-24T17:03:59;13.50;99.90
22491;DHT22;11412;50.802;4.350;2023-03-24T17:06:26;13.40;99.90
22491;DHT22;11412;50.802;4.350;2023-03-24T17:08:52;13.10;99.90
22491;DHT22;11412;50.802;4.350;2023-03-24T17:11:26;13.00;99.90
22491;DHT22;11412;50.802;4.350;2023-03-24T17:13:52;12.60;99.90
22491;DHT22;11412;50.802;4.350;2023-03-24T17:16:18;12.40;99.90
22491;DHT22;11412;50.802;4.350;2023-03-24T17:18:45;12.20;99.90
22491;DHT22;11412;50.802;4.350;2023-03-24T17:21:12;12.30;99.90
22491;DHT22;11412;50.802;4.350;2023-03-24T17:23:39;12.20;99.90
22491;DHT22;11412;50.802;4.350;2023-03-24T17:26:05;11.90;99.90
22491;DHT22;11412;50.802;4.350;2023-03-24T17:28:31;11.80;99.90
22491;DHT22;11412;50.802;4.350;2023-03-24T17:30:57;11.90;99.90
22491;DHT22;11412;50.802;4.350;2023-03-24T17:33:22;12.00;99.90
22491;DHT22;11412;50.802;4.350;2023-03-24T17:35:48;11.80;99.90
22491;DHT22;11412;50.802;4.350;2023-03-24T17:38:17;11.70;99.90
22491;DHT22;11412;50.802;4.350;2023-03-24T17:40:43;11.70;99.90
22491;DHT22;11412;50.802;4.350;2023-03-24T17:43:10;11.50;99.90
22491;DHT22;11412;50.802;4.350;2023-03-24T17:45:38;11.50;99.90
22491;DHT22;11412;50.802;4.350;2023-03-24T17:48:04;11.50;99.90
22491;DHT22;11412;50.802;4.350;2023-03-24T17:50:30;11.80;99.90
22491;DHT22;11412;50.802;4.350;2023-03-24T17:52:56;12.00;99.90
22491;DHT22;11412;50.802;4.350;2023-03-24T17:55:21;12.10;99.90
22491;DHT22;11412;50.802;4.350;2023-03-24T17:57:47;12.20;99.90
22491;DHT22;11412;50.802;4.350;2023-03-24T18:00:13;12.00;99.90
22491;DHT22;11412;50.802;4.350;2023-03-24T18:02:40;12.10;99.90
22491;DHT22;11412;50.802;4.350;2023-03-24T18:05:07;12.00;99.90
22491;DHT22;11412;50.802;4.350;2023-03-24T18:07:33;12.00;99.90
22491;DHT22;11412;50.802;4.350;2023-03-24T18:09:59;11.90;99.90
22491;DHT22;11412;50.802;4.350;2023-03-24T18:12:25;11.90;99.90
22491;DHT22;11412;50.802;4.350;2023-03-24T18:14:52;11.90;99.90
22491;DHT22;11412;50.802;4.350;2023-03-24T18:17:18;11.70;99.90
22491;DHT22;11412;50.802;4.350;2023-03-24T18:19:43;11.60;99.90
22491;DHT22;11412;50.802;4.350;2023-03-24T18:22:11;11.70;99.90
22491;DHT22;11412;50.802;4.350;2023-03-24T18:24:36;11.70;99.90
22491;DHT22;11412;50.802;4.350;2023-03-24T18:27:02;11.90;99.90
22491;DHT22;11412;50.802;4.350;2023-03-24T18:29:29;11.70;99.90
22491;DHT22;11412;50.802;4.350;2023-03-24T18:31:55;11.70;99.90
22491;DHT22;11412;50.802;4.350;2023-03-24T18:34:20;11.80;99.90
22491;DHT22;11412;50.802;4.350;2023-03-24T18:36:47;11.80;99.90